ARCK1: Arkansas Riv, ARk City, KS

Data processed at Thu Jan 04 2018 23:05


All information presented herein is the property of the government of the United States of America and may be revised or deleted at any time without prior notice.
Dissemination of this information without the expressed written consent of the Public Affairs Office, Tulsa District U.S. Army Corps of Engineers is strictly prohibited.
These data are gathered electronically and, as presented, have not undergone any form of quality control. These data are not guaranteed to be valid or correct.
Go to home page.
Go to station list.

Upstream stations:

Downstream station:
Previous Day
Next Day
Current Day
    
SHEF ID:       ARCK1     ARKANSAS R AT ARKANSAS CITY, KS
STATION TYPE:  

               PRECIP     STAGE  RIV-FLOW  BAT-LOAD
                   in        ft       cfs      volt
              Ccp-Rev   Ccp-Rev   Ccp-Rev   Ccp-Rev
(US/Central)
01/02 00:00      0.00      3.45       458     12.17
01/02 01:00      0.00      3.44       452     12.17
01/02 02:00      0.00      3.40       429     12.09
01/02 03:00      0.00      3.40       429     12.09
01/02 04:00      0.00      3.40       429     12.09
01/02 05:00      0.00      3.42       440     12.09
01/02 06:00      0.00      3.43       446     12.09
01/02 07:00      0.00      3.43       446     12.09
01/02 08:00      0.00      3.44       452     12.09
01/02 09:00      0.00      3.46       464     12.09
01/02 10:00      0.00      3.69       638     12.17
01/02 11:00      0.00      3.83       875     13.13
01/02 12:00      0.00      3.83       875     13.05
01/02 13:00      0.00      3.85       912     12.89
01/02 14:00      0.00      3.90      1007     13.13
01/02 15:00      0.00      3.91      1027     13.05
01/02 16:00      0.00      3.89       988     12.97
01/02 17:00      0.00      3.84       893     12.49
01/02 18:00      0.00      3.83       875     12.41
01/02 19:00      0.00      3.81       839     12.33
01/02 20:00      0.00      3.80       821     12.33
01/02 21:00      0.00      3.67       607     11.93
01/02 22:00      0.00      3.59       546     12.17
01/02 23:00      0.00      3.54       514     12.17